sensor_id;sensor_type;location;lat;lon;timestamp;temperature;humidity
25320;DHT22;13256;49.012;8.610;2022-12-26T00:02:25;7.30;99.90
25320;DHT22;13256;49.012;8.610;2022-12-26T00:04:52;7.30;99.90
25320;DHT22;13256;49.012;8.610;2022-12-26T00:07:22;7.20;99.90
25320;DHT22;13256;49.012;8.610;2022-12-26T00:09:49;7.20;99.90
25320;DHT22;13256;49.012;8.610;2022-12-26T00:12:16;7.20;99.90
25320;DHT22;13256;49.012;8.610;2022-12-26T00:14:42;7.10;99.90
25320;DHT22;13256;49.012;8.610;2022-12-26T00:17:12;7.10;99.90
25320;DHT22;13256;49.012;8.610;2022-12-26T00:19:38;7.10;99.90
25320;DHT22;13256;49.012;8.610;2022-12-26T00:22:07;7.10;99.90
25320;DHT22;13256;49.012;8.610;2022-12-26T00:24:36;7.10;99.90
25320;DHT22;13256;49.012;8.610;2022-12-26T00:27:09;7.10;99.90
25320;DHT22;13256;49.012;8.610;2022-12-26T00:29:36;7.10;99.90
25320;DHT22;13256;49.012;8.610;2022-12-26T00:32:02;7.10;99.90
25320;DHT22;13256;49.012;8.610;2022-12-26T00:34:30;7.10;99.90
25320;DHT22;13256;49.012;8.610;2022-12-26T00:36:56;7.10;99.90
25320;DHT22;13256;49.012;8.610;2022-12-26T00:39:25;7.10;99.90
25320;DHT22;13256;49.012;8.610;2022-12-26T00:41:53;7.20;99.90
25320;DHT22;13256;49.012;8.610;2022-12-26T00:44:21;7.10;99.90
25320;DHT22;13256;49.012;8.610;2022-12-26T00:46:53;7.10;99.90
25320;DHT22;13256;49.012;8.610;2022-12-26T00:49:20;7.10;99.90
25320;DHT22;13256;49.012;8.610;2022-12-26T00:51:49;7.10;99.90
25320;DHT22;13256;49.012;8.610;2022-12-26T00:54:17;7.00;99.90
25320;DHT22;13256;49.012;8.610;2022-12-26T00:56:44;7.00;99.90
25320;DHT22;13256;49.012;8.610;2022-12-26T00:59:11;7.00;99.90
25320;DHT22;13256;49.012;8.610;2022-12-26T01:01:40;7.00;99.90
25320;DHT22;13256;49.012;8.610;2022-12-26T01:04:09;7.00;99.90
25320;DHT22;13256;49.012;8.610;2022-12-26T01:06:37;7.00;99.90
25320;DHT22;13256;49.012;8.610;2022-12-26T01:09:03;7.00;99.90
25320;DHT22;13256;49.012;8.610;2022-12-26T01:11:30;7.00;99.90
25320;DHT22;13256;49.012;8.610;2022-12-26T01:14:15;7.00;99.90
25320;DHT22;13256;49.012;8.610;2022-12-26T01:16:44;7.00;99.90
25320;DHT22;13256;49.012;8.610;2022-12-26T01:19:11;7.00;99.90
25320;DHT22;13256;49.012;8.610;2022-12-26T01:21:43;7.00;99.90
25320;DHT22;13256;49.012;8.610;2022-12-26T01:24:10;7.00;99.90
25320;DHT22;13256;49.012;8.610;2022-12-26T01:26:38;7.10;99.90
25320;DHT22;13256;49.012;8.610;2022-12-26T01:29:16;7.10;99.90
25320;DHT22;13256;49.012;8.610;2022-12-26T01:31:42;7.10;99.90
25320;DHT22;13256;49.012;8.610;2022-12-26T01:34:09;7.10;99.90
25320;DHT22;13256;49.012;8.610;2022-12-26T01:36:36;7.10;99.90
25320;DHT22;13256;49.012;8.610;2022-12-26T01:39:03;7.10;99.90
25320;DHT22;13256;49.012;8.610;2022-12-26T01:41:29;7.10;99.90
25320;DHT22;13256;49.012;8.610;2022-12-26T01:44:02;7.20;99.90
25320;DHT22;13256;49.012;8.610;2022-12-26T01:46:34;7.20;99.90
25320;DHT22;13256;49.012;8.610;2022-12-26T01:49:26;7.20;99.90
25320;DHT22;13256;49.012;8.610;2022-12-26T01:52:02;7.20;99.90
25320;DHT22;13256;49.012;8.610;2022-12-26T01:54:33;7.30;99.90
25320;DHT22;13256;49.012;8.610;2022-12-26T02:00:27;7.60;99.90
25320;DHT22;13256;49.012;8.610;2022-12-26T02:02:54;7.80;99.90
25320;DHT22;13256;49.012;8.610;2022-12-26T02:05:43;8.20;99.90
25320;DHT22;13256;49.012;8.610;2022-12-26T02:08:16;8.60;99.90
25320;DHT22;13256;49.012;8.610;2022-12-26T02:10:54;9.00;99.90
25320;DHT22;13256;49.012;8.610;2022-12-26T02:13:23;9.40;99.90
25320;DHT22;13256;49.012;8.610;2022-12-26T02:15:50;9.70;99.90
25320;DHT22;13256;49.012;8.610;2022-12-26T02:18:20;10.00;99.90
25320;DHT22;13256;49.012;8.610;2022-12-26T02:43:15;12.00;99.90
25320;DHT22;13256;49.012;8.610;2022-12-26T02:46:18;12.00;99.90
25320;DHT22;13256;49.012;8.610;2022-12-26T02:49:59;12.00;99.90
25320;DHT22;13256;49.012;8.610;2022-12-26T02:56:01;11.90;99.90
25320;DHT22;13256;49.012;8.610;2022-12-26T02:59:00;11.90;99.90
25320;DHT22;13256;49.012;8.610;2022-12-26T03:11:38;12.70;99.90
25320;DHT22;13256;49.012;8.610;2022-12-26T03:14:41;12.80;99.90
25320;DHT22;13256;49.012;8.610;2022-12-26T03:17:42;12.90;99.90
25320;DHT22;13256;49.012;8.610;2022-12-26T03:20:32;12.90;99.90
25320;DHT22;13256;49.012;8.610;2022-12-26T03:23:13;13.00;99.90
25320;DHT22;13256;49.012;8.610;2022-12-26T03:25:52;13.10;99.90
25320;DHT22;13256;49.012;8.610;2022-12-26T03:28:47;13.10;99.90
25320;DHT22;13256;49.012;8.610;2022-12-26T03:31:16;13.20;99.90
25320;DHT22;13256;49.012;8.610;2022-12-26T03:33:47;13.20;99.90
25320;DHT22;13256;49.012;8.610;2022-12-26T03:43:02;13.00;99.90
25320;DHT22;13256;49.012;8.610;2022-12-26T03:49:48;13.00;99.90
25320;DHT22;13256;49.012;8.610;2022-12-26T03:53:23;13.10;99.90
25320;DHT22;13256;49.012;8.610;2022-12-26T03:56:29;13.00;99.90
25320;DHT22;13256;49.012;8.610;2022-12-26T03:59:32;12.90;99.90
25320;DHT22;13256;49.012;8.610;2022-12-26T04:02:20;12.80;99.90
25320;DHT22;13256;49.012;8.610;2022-12-26T04:05:08;12.60;99.90
25320;DHT22;13256;49.012;8.610;2022-12-26T04:08:04;12.50;99.90
25320;DHT22;13256;49.012;8.610;2022-12-26T04:10:59;12.60;99.90
25320;DHT22;13256;49.012;8.610;2022-12-26T04:14:06;12.60;99.90
25320;DHT22;13256;49.012;8.610;2022-12-26T04:17:11;12.70;99.90
25320;DHT22;13256;49.012;8.610;2022-12-26T04:20:11;12.70;99.90
25320;DHT22;13256;49.012;8.610;2022-12-26T04:22:51;12.70;99.90
25320;DHT22;13256;49.012;8.610;2022-12-26T04:26:07;12.80;99.90
25320;DHT22;13256;49.012;8.610;2022-12-26T04:29:03;12.90;99.90
25320;DHT22;13256;49.012;8.610;2022-12-26T04:34:48;12.90;99.90
25320;DHT22;13256;49.012;8.610;2022-12-26T04:37:40;12.90;99.90
25320;DHT22;13256;49.012;8.610;2022-12-26T04:40:31;13.00;99.90
25320;DHT22;13256;49.012;8.610;2022-12-26T04:43:28;13.00;99.90
25320;DHT22;13256;49.012;8.610;2022-12-26T04:46:22;13.00;99.90
25320;DHT22;13256;49.012;8.610;2022-12-26T04:48:57;13.10;99.90
25320;DHT22;13256;49.012;8.610;2022-12-26T04:51:53;13.10;99.90
25320;DHT22;13256;49.012;8.610;2022-12-26T04:54:26;13.20;99.90
25320;DHT22;13256;49.012;8.610;2022-12-26T04:56:53;13.10;99.90
25320;DHT22;13256;49.012;8.610;2022-12-26T04:59:25;13.10;99.90
25320;DHT22;13256;49.012;8.610;2022-12-26T05:01:52;13.00;99.90
25320;DHT22;13256;49.012;8.610;2022-12-26T05:05:04;13.00;99.90
25320;DHT22;13256;49.012;8.610;2022-12-26T05:07:52;13.00;99.90
25320;DHT22;13256;49.012;8.610;2022-12-26T05:10:42;12.90;99.90
25320;DHT22;13256;49.012;8.610;2022-12-26T05:13:09;13.00;99.90
25320;DHT22;13256;49.012;8.610;2022-12-26T05:15:39;13.00;99.90
25320;DHT22;13256;49.012;8.610;2022-12-26T05:18:30;13.10;99.90
25320;DHT22;13256;49.012;8.610;2022-12-26T05:21:45;13.30;99.90
25320;DHT22;13256;49.012;8.610;2022-12-26T05:24:38;13.50;99.90
25320;DHT22;13256;49.012;8.610;2022-12-26T05:27:51;13.60;99.90
25320;DHT22;13256;49.012;8.610;2022-12-26T05:30:38;13.50;99.90
25320;DHT22;13256;49.012;8.610;2022-12-26T05:33:06;13.50;99.90
25320;DHT22;13256;49.012;8.610;2022-12-26T05:35:51;13.40;99.90
25320;DHT22;13256;49.012;8.610;2022-12-26T05:38:18;13.30;99.90
25320;DHT22;13256;49.012;8.610;2022-12-26T05:41:04;13.20;99.90
25320;DHT22;13256;49.012;8.610;2022-12-26T05:43:39;13.10;99.90
25320;DHT22;13256;49.012;8.610;2022-12-26T05:46:05;13.10;99.90
25320;DHT22;13256;49.012;8.610;2022-12-26T05:48:33;13.00;99.90
25320;DHT22;13256;49.012;8.610;2022-12-26T05:51:01;13.00;99.90
25320;DHT22;13256;49.012;8.610;2022-12-26T05:53:29;13.00;99.90
25320;DHT22;13256;49.012;8.610;2022-12-26T05:56:08;13.00;99.90
25320;DHT22;13256;49.012;8.610;2022-12-26T05:58:37;13.00;99.90
25320;DHT22;13256;49.012;8.610;2022-12-26T06:01:18;12.90;99.90
25320;DHT22;13256;49.012;8.610;2022-12-26T06:03:54;12.90;99.90
25320;DHT22;13256;49.012;8.610;2022-12-26T06:06:22;12.80;99.90
25320;DHT22;13256;49.012;8.610;2022-12-26T06:08:54;12.80;99.90
25320;DHT22;13256;49.012;8.610;2022-12-26T06:11:26;12.80;99.90
25320;DHT22;13256;49.012;8.610;2022-12-26T06:13:55;12.70;99.90
25320;DHT22;13256;49.012;8.610;2022-12-26T06:16:23;12.60;99.90
25320;DHT22;13256;49.012;8.610;2022-12-26T06:18:55;12.60;99.90
25320;DHT22;13256;49.012;8.610;2022-12-26T06:21:28;12.60;99.90
25320;DHT22;13256;49.012;8.610;2022-12-26T06:24:00;12.60;99.90
25320;DHT22;13256;49.012;8.610;2022-12-26T06:26:28;12.50;99.90
25320;DHT22;13256;49.012;8.610;2022-12-26T06:28:58;12.40;99.90
25320;DHT22;13256;49.012;8.610;2022-12-26T06:31:27;12.30;99.90
25320;DHT22;13256;49.012;8.610;2022-12-26T06:33:58;12.30;99.90
25320;DHT22;13256;49.012;8.610;2022-12-26T06:36:28;12.20;99.90
25320;DHT22;13256;49.012;8.610;2022-12-26T06:38:58;12.20;99.90
25320;DHT22;13256;49.012;8.610;2022-12-26T06:41:26;12.30;99.90
25320;DHT22;13256;49.012;8.610;2022-12-26T06:43:54;12.50;99.90
25320;DHT22;13256;49.012;8.610;2022-12-26T06:46:23;12.60;99.90
25320;DHT22;13256;49.012;8.610;2022-12-26T06:48:53;12.60;99.90
25320;DHT22;13256;49.012;8.610;2022-12-26T06:51:26;12.80;99.90
25320;DHT22;13256;49.012;8.610;2022-12-26T06:53:59;12.90;99.90
25320;DHT22;13256;49.012;8.610;2022-12-26T06:56:31;12.90;99.90
25320;DHT22;13256;49.012;8.610;2022-12-26T06:59:04;12.90;99.90
25320;DHT22;13256;49.012;8.610;2022-12-26T07:01:32;12.70;99.90
25320;DHT22;13256;49.012;8.610;2022-12-26T07:04:02;12.60;99.90
25320;DHT22;13256;49.012;8.610;2022-12-26T07:06:32;12.50;99.90
25320;DHT22;13256;49.012;8.610;2022-12-26T07:09:04;12.40;99.90
25320;DHT22;13256;49.012;8.610;2022-12-26T07:11:35;12.40;99.90
25320;DHT22;13256;49.012;8.610;2022-12-26T07:14:03;12.30;99.90
25320;DHT22;13256;49.012;8.610;2022-12-26T07:16:32;12.20;99.90
25320;DHT22;13256;49.012;8.610;2022-12-26T07:18:59;12.10;99.90
25320;DHT22;13256;49.012;8.610;2022-12-26T07:21:28;12.10;99.90
25320;DHT22;13256;49.012;8.610;2022-12-26T07:23:59;12.00;99.90
25320;DHT22;13256;49.012;8.610;2022-12-26T07:26:29;12.00;99.90
25320;DHT22;13256;49.012;8.610;2022-12-26T07:29:02;12.00;99.90
25320;DHT22;13256;49.012;8.610;2022-12-26T07:31:28;11.90;99.90
25320;DHT22;13256;49.012;8.610;2022-12-26T07:33:56;11.90;99.90
25320;DHT22;13256;49.012;8.610;2022-12-26T07:36:23;11.80;99.90
25320;DHT22;13256;49.012;8.610;2022-12-26T07:38:53;11.80;99.90
25320;DHT22;13256;49.012;8.610;2022-12-26T07:41:20;11.80;99.90
25320;DHT22;13256;49.012;8.610;2022-12-26T07:44:08;11.70;99.90
25320;DHT22;13256;49.012;8.610;2022-12-26T07:46:35;11.80;99.90
25320;DHT22;13256;49.012;8.610;2022-12-26T07:49:06;11.70;99.90
25320;DHT22;13256;49.012;8.610;2022-12-26T07:51:32;11.80;99.90
25320;DHT22;13256;49.012;8.610;2022-12-26T07:53:59;11.70;99.90
25320;DHT22;13256;49.012;8.610;2022-12-26T07:56:35;11.80;99.90
25320;DHT22;13256;49.012;8.610;2022-12-26T07:59:05;11.80;99.90
25320;DHT22;13256;49.012;8.610;2022-12-26T08:01:32;11.90;99.90
25320;DHT22;13256;49.012;8.610;2022-12-26T08:03:59;11.80;99.90
25320;DHT22;13256;49.012;8.610;2022-12-26T08:06:31;11.80;99.90
25320;DHT22;13256;49.012;8.610;2022-12-26T08:08:58;11.70;99.90
25320;DHT22;13256;49.012;8.610;2022-12-26T08:11:25;11.70;99.90
25320;DHT22;13256;49.012;8.610;2022-12-26T08:13:53;11.60;99.90
25320;DHT22;13256;49.012;8.610;2022-12-26T08:16:30;11.60;99.90
25320;DHT22;13256;49.012;8.610;2022-12-26T08:18:57;11.60;99.90
25320;DHT22;13256;49.012;8.610;2022-12-26T08:21:24;11.60;99.90
25320;DHT22;13256;49.012;8.610;2022-12-26T08:23:52;11.50;99.90
25320;DHT22;13256;49.012;8.610;2022-12-26T08:26:21;11.50;99.90
25320;DHT22;13256;49.012;8.610;2022-12-26T08:28:50;11.40;99.90
25320;DHT22;13256;49.012;8.610;2022-12-26T08:31:19;11.40;99.90
25320;DHT22;13256;49.012;8.610;2022-12-26T08:33:53;11.40;99.90
25320;DHT22;13256;49.012;8.610;2022-12-26T08:36:22;11.30;99.90
25320;DHT22;13256;49.012;8.610;2022-12-26T08:38:52;11.30;99.90
25320;DHT22;13256;49.012;8.610;2022-12-26T08:41:20;11.30;99.90
25320;DHT22;13256;49.012;8.610;2022-12-26T08:43:49;11.20;99.90
25320;DHT22;13256;49.012;8.610;2022-12-26T08:46:36;11.20;99.90
25320;DHT22;13256;49.012;8.610;2022-12-26T08:49:03;11.20;99.90
25320;DHT22;13256;49.012;8.610;2022-12-26T08:51:30;11.20;99.90
25320;DHT22;13256;49.012;8.610;2022-12-26T08:54:02;11.20;99.90
25320;DHT22;13256;49.012;8.610;2022-12-26T08:56:30;11.20;99.90
25320;DHT22;13256;49.012;8.610;2022-12-26T08:59:01;11.20;99.90
25320;DHT22;13256;49.012;8.610;2022-12-26T09:01:29;11.20;99.90
25320;DHT22;13256;49.012;8.610;2022-12-26T09:04:04;11.30;99.90
25320;DHT22;13256;49.012;8.610;2022-12-26T09:06:38;11.20;99.90
25320;DHT22;13256;49.012;8.610;2022-12-26T09:11:54;11.30;99.90
25320;DHT22;13256;49.012;8.610;2022-12-26T09:14:22;11.30;99.90
25320;DHT22;13256;49.012;8.610;2022-12-26T09:16:54;11.30;99.90
25320;DHT22;13256;49.012;8.610;2022-12-26T09:19:22;11.30;99.90
25320;DHT22;13256;49.012;8.610;2022-12-26T09:21:54;11.20;99.90
25320;DHT22;13256;49.012;8.610;2022-12-26T09:24:44;11.30;99.90
25320;DHT22;13256;49.012;8.610;2022-12-26T09:27:20;11.20;99.90
25320;DHT22;13256;49.012;8.610;2022-12-26T09:29:54;11.20;99.90
25320;DHT22;13256;49.012;8.610;2022-12-26T09:32:47;11.20;99.90
25320;DHT22;13256;49.012;8.610;2022-12-26T09:35:14;11.20;99.90
25320;DHT22;13256;49.012;8.610;2022-12-26T09:37:40;11.20;99.90
25320;DHT22;13256;49.012;8.610;2022-12-26T09:40:18;11.20;99.90
25320;DHT22;13256;49.012;8.610;2022-12-26T09:46:20;11.10;99.90
25320;DHT22;13256;49.012;8.610;2022-12-26T09:49:09;11.10;99.90
25320;DHT22;13256;49.012;8.610;2022-12-26T09:51:42;11.10;99.90
25320;DHT22;13256;49.012;8.610;2022-12-26T09:57:07;11.10;99.90
25320;DHT22;13256;49.012;8.610;2022-12-26T09:59:51;11.10;99.90
25320;DHT22;13256;49.012;8.610;2022-12-26T10:02:23;11.10;99.90
25320;DHT22;13256;49.012;8.610;2022-12-26T10:04:53;11.10;99.90
25320;DHT22;13256;49.012;8.610;2022-12-26T10:07:51;11.10;99.90
25320;DHT22;13256;49.012;8.610;2022-12-26T10:16:12;11.10;99.90
25320;DHT22;13256;49.012;8.610;2022-12-26T10:28:50;11.20;99.90
25320;DHT22;13256;49.012;8.610;2022-12-26T10:37:44;11.10;99.90
25320;DHT22;13256;49.012;8.610;2022-12-26T10:40:21;11.20;99.90
25320;DHT22;13256;49.012;8.610;2022-12-26T10:46:46;11.20;99.90
25320;DHT22;13256;49.012;8.610;2022-12-26T10:49:27;11.30;99.90
25320;DHT22;13256;49.012;8.610;2022-12-26T10:52:00;11.30;99.90
25320;DHT22;13256;49.012;8.610;2022-12-26T10:54:29;11.20;99.90
25320;DHT22;13256;49.012;8.610;2022-12-26T10:57:01;11.30;99.90
25320;DHT22;13256;49.012;8.610;2022-12-26T10:59:55;11.20;99.90
25320;DHT22;13256;49.012;8.610;2022-12-26T11:02:38;11.20;99.90
25320;DHT22;13256;49.012;8.610;2022-12-26T11:05:15;11.30;99.90
25320;DHT22;13256;49.012;8.610;2022-12-26T11:08:31;11.30;99.90
25320;DHT22;13256;49.012;8.610;2022-12-26T11:13:54;11.50;99.90
25320;DHT22;13256;49.012;8.610;2022-12-26T11:16:55;11.50;99.90
25320;DHT22;13256;49.012;8.610;2022-12-26T11:19:33;11.50;99.90
25320;DHT22;13256;49.012;8.610;2022-12-26T11:25:20;11.60;99.90
25320;DHT22;13256;49.012;8.610;2022-12-26T11:27:56;11.60;99.90
25320;DHT22;13256;49.012;8.610;2022-12-26T11:30:37;11.50;99.90
25320;DHT22;13256;49.012;8.610;2022-12-26T11:35:50;11.60;99.90
25320;DHT22;13256;49.012;8.610;2022-12-26T11:41:31;11.70;99.90
25320;DHT22;13256;49.012;8.610;2022-12-26T11:50:17;11.80;99.90
25320;DHT22;13256;49.012;8.610;2022-12-26T11:53:05;11.80;99.90
25320;DHT22;13256;49.012;8.610;2022-12-26T11:59:21;11.80;99.90
25320;DHT22;13256;49.012;8.610;2022-12-26T12:02:14;11.80;99.90
25320;DHT22;13256;49.012;8.610;2022-12-26T12:04:52;11.80;99.90
25320;DHT22;13256;49.012;8.610;2022-12-26T12:19:17;11.80;99.90
25320;DHT22;13256;49.012;8.610;2022-12-26T12:22:44;11.90;99.90
25320;DHT22;13256;49.012;8.610;2022-12-26T12:25:55;11.90;99.90
25320;DHT22;13256;49.012;8.610;2022-12-26T12:29:21;11.90;99.90
25320;DHT22;13256;49.012;8.610;2022-12-26T12:44:15;12.10;99.90
25320;DHT22;13256;49.012;8.610;2022-12-26T13:01:42;12.00;99.90
25320;DHT22;13256;49.012;8.610;2022-12-26T13:04:47;11.90;99.90
25320;DHT22;13256;49.012;8.610;2022-12-26T13:07:31;11.80;99.90
25320;DHT22;13256;49.012;8.610;2022-12-26T13:10:30;11.80;99.90
25320;DHT22;13256;49.012;8.610;2022-12-26T13:13:32;11.70;99.90
25320;DHT22;13256;49.012;8.610;2022-12-26T13:16:10;11.80;99.90
25320;DHT22;13256;49.012;8.610;2022-12-26T13:19:11;11.80;99.90
25320;DHT22;13256;49.012;8.610;2022-12-26T13:21:46;11.80;99.90
25320;DHT22;13256;49.012;8.610;2022-12-26T13:27:13;11.90;99.90
25320;DHT22;13256;49.012;8.610;2022-12-26T13:29:50;11.90;99.90
25320;DHT22;13256;49.012;8.610;2022-12-26T13:32:45;11.90;99.90
25320;DHT22;13256;49.012;8.610;2022-12-26T13:35:51;11.90;99.90
25320;DHT22;13256;49.012;8.610;2022-12-26T13:42:21;11.80;99.90
25320;DHT22;13256;49.012;8.610;2022-12-26T13:45:46;11.80;99.90
25320;DHT22;13256;49.012;8.610;2022-12-26T13:50:54;11.70;99.90
25320;DHT22;13256;49.012;8.610;2022-12-26T13:53:58;11.70;99.90
25320;DHT22;13256;49.012;8.610;2022-12-26T14:00:39;11.70;99.90
25320;DHT22;13256;49.012;8.610;2022-12-26T14:12:49;11.60;99.90
25320;DHT22;13256;49.012;8.610;2022-12-26T14:19:33;11.60;99.90
25320;DHT22;13256;49.012;8.610;2022-12-26T14:22:42;11.60;99.90
25320;DHT22;13256;49.012;8.610;2022-12-26T14:40:34;11.50;99.90
25320;DHT22;13256;49.012;8.610;2022-12-26T14:43:27;11.50;99.90
25320;DHT22;13256;49.012;8.610;2022-12-26T14:52:37;11.30;99.90
25320;DHT22;13256;49.012;8.610;2022-12-26T14:58:48;11.10;99.90
25320;DHT22;13256;49.012;8.610;2022-12-26T15:04:15;11.00;99.90
25320;DHT22;13256;49.012;8.610;2022-12-26T15:24:12;10.90;99.90
25320;DHT22;13256;49.012;8.610;2022-12-26T15:29:36;10.80;99.90
25320;DHT22;13256;49.012;8.610;2022-12-26T15:32:35;10.80;99.90
25320;DHT22;13256;49.012;8.610;2022-12-26T15:35:18;10.80;99.90
25320;DHT22;13256;49.012;8.610;2022-12-26T15:38:20;10.80;99.90
25320;DHT22;13256;49.012;8.610;2022-12-26T15:41:39;10.80;99.90
25320;DHT22;13256;49.012;8.610;2022-12-26T15:44:42;10.80;99.90
25320;DHT22;13256;49.012;8.610;2022-12-26T16:11:48;10.90;99.90
25320;DHT22;13256;49.012;8.610;2022-12-26T16:14:41;10.90;99.90
25320;DHT22;13256;49.012;8.610;2022-12-26T16:17:26;10.90;99.90
25320;DHT22;13256;49.012;8.610;2022-12-26T16:19:59;10.80;99.90
25320;DHT22;13256;49.012;8.610;2022-12-26T16:22:45;10.80;99.90
25320;DHT22;13256;49.012;8.610;2022-12-26T16:25:20;10.80;99.90
25320;DHT22;13256;49.012;8.610;2022-12-26T16:27:57;10.80;99.90
25320;DHT22;13256;49.012;8.610;2022-12-26T16:30:29;10.80;99.90
25320;DHT22;13256;49.012;8.610;2022-12-26T16:33:01;10.80;99.90
25320;DHT22;13256;49.012;8.610;2022-12-26T16:35:43;10.80;99.90
25320;DHT22;13256;49.012;8.610;2022-12-26T16:38:16;10.80;99.90
25320;DHT22;13256;49.012;8.610;2022-12-26T16:41:39;10.80;99.90
25320;DHT22;13256;49.012;8.610;2022-12-26T16:44:42;10.70;99.90
25320;DHT22;13256;49.012;8.610;2022-12-26T16:47:13;10.70;99.90
25320;DHT22;13256;49.012;8.610;2022-12-26T16:49:45;10.70;99.90
25320;DHT22;13256;49.012;8.610;2022-12-26T16:53:54;10.60;99.90
25320;DHT22;13256;49.012;8.610;2022-12-26T16:56:31;10.70;99.90
25320;DHT22;13256;49.012;8.610;2022-12-26T16:59:21;10.60;99.90
25320;DHT22;13256;49.012;8.610;2022-12-26T17:02:33;10.60;99.90
25320;DHT22;13256;49.012;8.610;2022-12-26T17:05:33;10.60;99.90
25320;DHT22;13256;49.012;8.610;2022-12-26T17:08:04;10.60;99.90
25320;DHT22;13256;49.012;8.610;2022-12-26T17:10:39;10.60;99.90
25320;DHT22;13256;49.012;8.610;2022-12-26T17:13:21;10.60;99.90
25320;DHT22;13256;49.012;8.610;2022-12-26T17:43:32;10.50;99.90
25320;DHT22;13256;49.012;8.610;2022-12-26T17:46:00;10.50;99.90
25320;DHT22;13256;49.012;8.610;2022-12-26T17:48:31;10.50;99.90
25320;DHT22;13256;49.012;8.610;2022-12-26T17:51:05;10.50;99.90
25320;DHT22;13256;49.012;8.610;2022-12-26T17:53:42;10.50;99.90
25320;DHT22;13256;49.012;8.610;2022-12-26T17:56:19;10.50;99.90
25320;DHT22;13256;49.012;8.610;2022-12-26T17:58:57;10.50;99.90
25320;DHT22;13256;49.012;8.610;2022-12-26T18:01:24;10.50;99.90
25320;DHT22;13256;49.012;8.610;2022-12-26T18:03:53;10.40;99.90
25320;DHT22;13256;49.012;8.610;2022-12-26T18:06:22;10.40;99.90
25320;DHT22;13256;49.012;8.610;2022-12-26T18:08:55;10.30;99.90
25320;DHT22;13256;49.012;8.610;2022-12-26T18:12:03;10.30;99.90
25320;DHT22;13256;49.012;8.610;2022-12-26T18:14:55;10.30;99.90
25320;DHT22;13256;49.012;8.610;2022-12-26T18:17:54;10.30;99.90
25320;DHT22;13256;49.012;8.610;2022-12-26T18:20:25;10.30;99.90
25320;DHT22;13256;49.012;8.610;2022-12-26T18:23:00;10.30;99.90
25320;DHT22;13256;49.012;8.610;2022-12-26T18:25:30;10.30;99.90
25320;DHT22;13256;49.012;8.610;2022-12-26T18:28:02;10.30;99.90
25320;DHT22;13256;49.012;8.610;2022-12-26T18:30:32;10.30;99.90
25320;DHT22;13256;49.012;8.610;2022-12-26T18:33:03;10.30;99.90
25320;DHT22;13256;49.012;8.610;2022-12-26T18:38:52;10.30;99.90
25320;DHT22;13256;49.012;8.610;2022-12-26T18:41:19;10.30;99.90
25320;DHT22;13256;49.012;8.610;2022-12-26T18:43:49;10.30;99.90
25320;DHT22;13256;49.012;8.610;2022-12-26T18:46:24;10.20;99.90
25320;DHT22;13256;49.012;8.610;2022-12-26T18:48:53;10.10;99.90
25320;DHT22;13256;49.012;8.610;2022-12-26T18:51:28;10.00;99.90
25320;DHT22;13256;49.012;8.610;2022-12-26T18:53:58;10.00;99.90
25320;DHT22;13256;49.012;8.610;2022-12-26T18:56:30;9.90;99.90
25320;DHT22;13256;49.012;8.610;2022-12-26T18:59:04;9.90;99.90
25320;DHT22;13256;49.012;8.610;2022-12-26T19:01:30;9.80;99.90
25320;DHT22;13256;49.012;8.610;2022-12-26T19:04:01;9.80;99.90
25320;DHT22;13256;49.012;8.610;2022-12-26T19:06:31;9.70;99.90
25320;DHT22;13256;49.012;8.610;2022-12-26T19:09:28;9.70;99.90
25320;DHT22;13256;49.012;8.610;2022-12-26T19:12:05;9.60;99.90
25320;DHT22;13256;49.012;8.610;2022-12-26T19:14:53;9.60;99.90
25320;DHT22;13256;49.012;8.610;2022-12-26T19:17:23;9.50;99.90
25320;DHT22;13256;49.012;8.610;2022-12-26T19:19:53;9.50;99.90
25320;DHT22;13256;49.012;8.610;2022-12-26T19:22:25;9.40;99.90
25320;DHT22;13256;49.012;8.610;2022-12-26T19:24:53;9.40;99.90
25320;DHT22;13256;49.012;8.610;2022-12-26T19:27:23;9.40;99.90
25320;DHT22;13256;49.012;8.610;2022-12-26T19:29:52;9.40;99.90
25320;DHT22;13256;49.012;8.610;2022-12-26T19:32:25;9.30;99.90
25320;DHT22;13256;49.012;8.610;2022-12-26T19:34:55;9.30;99.90
25320;DHT22;13256;49.012;8.610;2022-12-26T19:37:41;9.30;99.90
25320;DHT22;13256;49.012;8.610;2022-12-26T19:40:09;9.20;99.90
25320;DHT22;13256;49.012;8.610;2022-12-26T19:42:40;9.20;99.90
25320;DHT22;13256;49.012;8.610;2022-12-26T19:45:16;9.20;99.90
25320;DHT22;13256;49.012;8.610;2022-12-26T19:47:47;9.20;99.90
25320;DHT22;13256;49.012;8.610;2022-12-26T19:50:15;9.20;99.90
25320;DHT22;13256;49.012;8.610;2022-12-26T19:52:44;9.10;99.90
25320;DHT22;13256;49.012;8.610;2022-12-26T19:55:11;9.10;99.90
25320;DHT22;13256;49.012;8.610;2022-12-26T19:57:41;9.10;99.90
25320;DHT22;13256;49.012;8.610;2022-12-26T20:00:09;9.10;99.90
25320;DHT22;13256;49.012;8.610;2022-12-26T20:02:42;9.10;99.90
25320;DHT22;13256;49.012;8.610;2022-12-26T20:05:11;9.10;99.90
25320;DHT22;13256;49.012;8.610;2022-12-26T20:08:04;9.00;99.90
25320;DHT22;13256;49.012;8.610;2022-12-26T20:10:32;9.00;99.90
25320;DHT22;13256;49.012;8.610;2022-12-26T20:13:05;9.00;99.90
25320;DHT22;13256;49.012;8.610;2022-12-26T20:15:34;9.00;99.90
25320;DHT22;13256;49.012;8.610;2022-12-26T20:18:03;9.00;99.90
25320;DHT22;13256;49.012;8.610;2022-12-26T20:20:30;8.90;99.90
25320;DHT22;13256;49.012;8.610;2022-12-26T20:23:01;8.90;99.90
25320;DHT22;13256;49.012;8.610;2022-12-26T20:25:30;8.90;99.90
25320;DHT22;13256;49.012;8.610;2022-12-26T20:28:00;8.90;99.90
25320;DHT22;13256;49.012;8.610;2022-12-26T20:30:33;8.80;99.90
25320;DHT22;13256;49.012;8.610;2022-12-26T20:33:00;8.80;99.90
25320;DHT22;13256;49.012;8.610;2022-12-26T20:35:27;8.80;99.90
25320;DHT22;13256;49.012;8.610;2022-12-26T20:37:54;8.80;99.90
25320;DHT22;13256;49.012;8.610;2022-12-26T20:40:21;8.80;99.90
25320;DHT22;13256;49.012;8.610;2022-12-26T20:42:54;8.80;99.90
25320;DHT22;13256;49.012;8.610;2022-12-26T20:45:25;8.80;99.90
25320;DHT22;13256;49.012;8.610;2022-12-26T20:47:55;8.70;99.90
25320;DHT22;13256;49.012;8.610;2022-12-26T20:50:27;8.70;99.90
25320;DHT22;13256;49.012;8.610;2022-12-26T20:52:58;8.70;99.90
25320;DHT22;13256;49.012;8.610;2022-12-26T20:55:28;8.70;99.90
25320;DHT22;13256;49.012;8.610;2022-12-26T20:58:05;8.70;99.90
25320;DHT22;13256;49.012;8.610;2022-12-26T21:00:40;8.60;99.90
25320;DHT22;13256;49.012;8.610;2022-12-26T21:03:17;8.60;99.90
25320;DHT22;13256;49.012;8.610;2022-12-26T21:05:50;8.60;99.90
25320;DHT22;13256;49.012;8.610;2022-12-26T21:08:17;8.60;99.90
25320;DHT22;13256;49.012;8.610;2022-12-26T21:10:46;8.60;99.90
25320;DHT22;13256;49.012;8.610;2022-12-26T21:13:14;8.60;99.90
25320;DHT22;13256;49.012;8.610;2022-12-26T21:15:41;8.50;99.90
25320;DHT22;13256;49.012;8.610;2022-12-26T21:18:11;8.50;99.90
25320;DHT22;13256;49.012;8.610;2022-12-26T21:20:38;8.50;99.90